sensor_id;sensor_type;location;lat;lon;timestamp;temperature;humidity
53294;DHT22;39181;53.440;5.644;2023-05-20T00:01:33;11.10;99.90
53294;DHT22;39181;53.440;5.644;2023-05-20T00:03:59;11.10;99.90
53294;DHT22;39181;53.440;5.644;2023-05-20T00:06:24;11.10;99.90
53294;DHT22;39181;53.440;5.644;2023-05-20T00:08:50;11.00;99.90
53294;DHT22;39181;53.440;5.644;2023-05-20T00:11:16;11.00;99.90
53294;DHT22;39181;53.440;5.644;2023-05-20T00:13:41;11.00;99.90
53294;DHT22;39181;53.440;5.644;2023-05-20T00:16:07;11.00;99.90
53294;DHT22;39181;53.440;5.644;2023-05-20T00:18:32;11.10;99.90
53294;DHT22;39181;53.440;5.644;2023-05-20T00:20:58;11.00;99.90
53294;DHT22;39181;53.440;5.644;2023-05-20T00:23:23;11.00;99.90
53294;DHT22;39181;53.440;5.644;2023-05-20T00:25:49;11.00;99.90
53294;DHT22;39181;53.440;5.644;2023-05-20T00:28:15;11.00;99.90
53294;DHT22;39181;53.440;5.644;2023-05-20T00:30:40;11.00;99.90
53294;DHT22;39181;53.440;5.644;2023-05-20T00:33:06;11.00;99.90
53294;DHT22;39181;53.440;5.644;2023-05-20T00:35:32;11.00;99.90
53294;DHT22;39181;53.440;5.644;2023-05-20T00:37:57;10.90;99.90
53294;DHT22;39181;53.440;5.644;2023-05-20T00:40:23;11.00;99.90
53294;DHT22;39181;53.440;5.644;2023-05-20T00:42:49;11.00;99.90
53294;DHT22;39181;53.440;5.644;2023-05-20T00:45:15;11.00;99.90
53294;DHT22;39181;53.440;5.644;2023-05-20T00:47:41;11.00;99.90
53294;DHT22;39181;53.440;5.644;2023-05-20T00:50:08;11.00;99.90
53294;DHT22;39181;53.440;5.644;2023-05-20T00:52:35;11.00;99.90
53294;DHT22;39181;53.440;5.644;2023-05-20T00:55:01;11.00;99.90
53294;DHT22;39181;53.440;5.644;2023-05-20T00:57:28;11.00;99.90
53294;DHT22;39181;53.440;5.644;2023-05-20T00:59:54;11.00;99.90
53294;DHT22;39181;53.440;5.644;2023-05-20T01:02:20;11.00;99.90
53294;DHT22;39181;53.440;5.644;2023-05-20T01:04:46;11.00;99.90
53294;DHT22;39181;53.440;5.644;2023-05-20T01:07:14;11.00;99.90
53294;DHT22;39181;53.440;5.644;2023-05-20T01:09:40;11.00;99.90
53294;DHT22;39181;53.440;5.644;2023-05-20T01:12:15;10.90;99.90
53294;DHT22;39181;53.440;5.644;2023-05-20T01:14:49;10.90;99.90
53294;DHT22;39181;53.440;5.644;2023-05-20T01:17:18;10.90;99.90
53294;DHT22;39181;53.440;5.644;2023-05-20T01:19:48;10.90;99.90
53294;DHT22;39181;53.440;5.644;2023-05-20T01:22:14;10.90;99.90
53294;DHT22;39181;53.440;5.644;2023-05-20T01:24:45;10.90;99.90
53294;DHT22;39181;53.440;5.644;2023-05-20T01:27:13;10.90;99.90
53294;DHT22;39181;53.440;5.644;2023-05-20T01:29:39;10.90;99.90
53294;DHT22;39181;53.440;5.644;2023-05-20T01:32:14;10.90;99.90
53294;DHT22;39181;53.440;5.644;2023-05-20T01:34:43;10.90;99.90
53294;DHT22;39181;53.440;5.644;2023-05-20T01:37:10;10.90;99.90
53294;DHT22;39181;53.440;5.644;2023-05-20T01:39:38;10.90;99.90
53294;DHT22;39181;53.440;5.644;2023-05-20T01:42:08;11.00;99.90
53294;DHT22;39181;53.440;5.644;2023-05-20T01:44:34;11.00;99.90
53294;DHT22;39181;53.440;5.644;2023-05-20T01:47:00;11.00;99.90
53294;DHT22;39181;53.440;5.644;2023-05-20T01:49:26;11.00;99.90
53294;DHT22;39181;53.440;5.644;2023-05-20T01:51:51;11.00;99.90
53294;DHT22;39181;53.440;5.644;2023-05-20T01:54:17;11.00;99.90
53294;DHT22;39181;53.440;5.644;2023-05-20T01:56:44;11.00;99.90
53294;DHT22;39181;53.440;5.644;2023-05-20T01:59:10;11.00;99.90
53294;DHT22;39181;53.440;5.644;2023-05-20T02:01:36;11.00;99.90
53294;DHT22;39181;53.440;5.644;2023-05-20T02:04:01;11.00;99.90
53294;DHT22;39181;53.440;5.644;2023-05-20T02:06:27;11.10;99.90
53294;DHT22;39181;53.440;5.644;2023-05-20T02:08:52;11.00;99.90
53294;DHT22;39181;53.440;5.644;2023-05-20T02:11:18;11.00;99.90
53294;DHT22;39181;53.440;5.644;2023-05-20T02:13:44;11.00;99.90
53294;DHT22;39181;53.440;5.644;2023-05-20T02:16:09;11.00;99.90
53294;DHT22;39181;53.440;5.644;2023-05-20T02:18:35;10.90;99.90
53294;DHT22;39181;53.440;5.644;2023-05-20T02:21:03;11.00;99.90
53294;DHT22;39181;53.440;5.644;2023-05-20T02:23:30;11.00;99.90
53294;DHT22;39181;53.440;5.644;2023-05-20T02:25:56;11.00;99.90
53294;DHT22;39181;53.440;5.644;2023-05-20T02:28:21;10.90;99.90
53294;DHT22;39181;53.440;5.644;2023-05-20T02:30:47;11.00;99.90
53294;DHT22;39181;53.440;5.644;2023-05-20T02:33:12;11.00;99.90
53294;DHT22;39181;53.440;5.644;2023-05-20T02:35:38;11.00;99.90
53294;DHT22;39181;53.440;5.644;2023-05-20T02:38:04;11.00;99.90
53294;DHT22;39181;53.440;5.644;2023-05-20T02:40:30;11.00;99.90
53294;DHT22;39181;53.440;5.644;2023-05-20T02:42:56;11.00;99.90
53294;DHT22;39181;53.440;5.644;2023-05-20T02:45:22;11.00;99.90
53294;DHT22;39181;53.440;5.644;2023-05-20T02:47:47;11.10;99.90
53294;DHT22;39181;53.440;5.644;2023-05-20T02:50:13;11.10;99.90
53294;DHT22;39181;53.440;5.644;2023-05-20T02:52:39;11.00;99.90
53294;DHT22;39181;53.440;5.644;2023-05-20T02:55:07;11.10;99.90
53294;DHT22;39181;53.440;5.644;2023-05-20T02:57:33;11.00;99.90
53294;DHT22;39181;53.440;5.644;2023-05-20T03:00:03;11.00;99.90
53294;DHT22;39181;53.440;5.644;2023-05-20T03:02:30;11.00;99.90
53294;DHT22;39181;53.440;5.644;2023-05-20T03:04:55;10.90;99.90
53294;DHT22;39181;53.440;5.644;2023-05-20T03:07:21;10.90;99.90
53294;DHT22;39181;53.440;5.644;2023-05-20T03:09:47;10.90;99.90
53294;DHT22;39181;53.440;5.644;2023-05-20T03:12:13;10.90;99.90
53294;DHT22;39181;53.440;5.644;2023-05-20T03:14:38;10.90;99.90
53294;DHT22;39181;53.440;5.644;2023-05-20T03:17:04;10.90;99.90
53294;DHT22;39181;53.440;5.644;2023-05-20T03:19:30;10.90;99.90
53294;DHT22;39181;53.440;5.644;2023-05-20T03:21:55;10.90;99.90
53294;DHT22;39181;53.440;5.644;2023-05-20T03:24:22;10.90;99.90
53294;DHT22;39181;53.440;5.644;2023-05-20T03:26:48;10.90;99.90
53294;DHT22;39181;53.440;5.644;2023-05-20T03:29:14;10.90;99.90
53294;DHT22;39181;53.440;5.644;2023-05-20T03:31:40;10.90;99.90
53294;DHT22;39181;53.440;5.644;2023-05-20T03:34:06;10.90;99.90
53294;DHT22;39181;53.440;5.644;2023-05-20T03:36:32;10.90;99.90
53294;DHT22;39181;53.440;5.644;2023-05-20T03:38:57;10.90;99.90
53294;DHT22;39181;53.440;5.644;2023-05-20T03:41:23;10.90;99.90
53294;DHT22;39181;53.440;5.644;2023-05-20T03:43:48;10.90;99.90
53294;DHT22;39181;53.440;5.644;2023-05-20T03:46:14;10.90;99.90
53294;DHT22;39181;53.440;5.644;2023-05-20T03:48:40;10.90;99.90
53294;DHT22;39181;53.440;5.644;2023-05-20T03:51:05;10.90;99.90
53294;DHT22;39181;53.440;5.644;2023-05-20T03:53:31;10.90;99.90
53294;DHT22;39181;53.440;5.644;2023-05-20T03:55:57;10.90;99.90
53294;DHT22;39181;53.440;5.644;2023-05-20T03:58:22;10.90;99.90
53294;DHT22;39181;53.440;5.644;2023-05-20T04:00:48;11.00;99.90
53294;DHT22;39181;53.440;5.644;2023-05-20T04:03:13;11.00;99.90
53294;DHT22;39181;53.440;5.644;2023-05-20T04:05:40;11.10;99.90
53294;DHT22;39181;53.440;5.644;2023-05-20T04:08:06;11.00;99.90
53294;DHT22;39181;53.440;5.644;2023-05-20T04:10:31;11.10;99.90
53294;DHT22;39181;53.440;5.644;2023-05-20T04:12:57;11.10;99.90
53294;DHT22;39181;53.440;5.644;2023-05-20T04:15:23;11.10;99.90
53294;DHT22;39181;53.440;5.644;2023-05-20T04:17:49;11.20;99.90
53294;DHT22;39181;53.440;5.644;2023-05-20T04:20:17;11.20;99.90
53294;DHT22;39181;53.440;5.644;2023-05-20T04:22:43;11.20;99.90
53294;DHT22;39181;53.440;5.644;2023-05-20T04:25:09;11.20;99.90
53294;DHT22;39181;53.440;5.644;2023-05-20T04:27:34;11.20;99.90
53294;DHT22;39181;53.440;5.644;2023-05-20T04:30:02;11.30;99.90
53294;DHT22;39181;53.440;5.644;2023-05-20T04:32:29;11.30;99.90
53294;DHT22;39181;53.440;5.644;2023-05-20T04:34:55;11.30;99.90
53294;DHT22;39181;53.440;5.644;2023-05-20T04:37:21;11.30;99.90
53294;DHT22;39181;53.440;5.644;2023-05-20T04:39:47;11.40;99.90
53294;DHT22;39181;53.440;5.644;2023-05-20T04:42:14;11.40;99.90
53294;DHT22;39181;53.440;5.644;2023-05-20T04:44:42;11.50;99.90
53294;DHT22;39181;53.440;5.644;2023-05-20T04:47:10;11.60;99.90
53294;DHT22;39181;53.440;5.644;2023-05-20T04:49:36;11.70;99.90
53294;DHT22;39181;53.440;5.644;2023-05-20T04:52:02;11.80;99.90
53294;DHT22;39181;53.440;5.644;2023-05-20T04:54:29;11.90;99.90
53294;DHT22;39181;53.440;5.644;2023-05-20T04:56:55;12.00;99.90
53294;DHT22;39181;53.440;5.644;2023-05-20T04:59:21;12.00;99.90
53294;DHT22;39181;53.440;5.644;2023-05-20T05:01:46;12.10;99.90
53294;DHT22;39181;53.440;5.644;2023-05-20T05:04:12;12.20;99.90
53294;DHT22;39181;53.440;5.644;2023-05-20T05:06:38;12.30;99.90
53294;DHT22;39181;53.440;5.644;2023-05-20T05:09:03;12.40;99.90
53294;DHT22;39181;53.440;5.644;2023-05-20T05:11:29;12.50;99.90
53294;DHT22;39181;53.440;5.644;2023-05-20T05:13:55;12.40;99.90
53294;DHT22;39181;53.440;5.644;2023-05-20T05:16:21;12.50;99.90
53294;DHT22;39181;53.440;5.644;2023-05-20T05:18:47;12.50;99.90
53294;DHT22;39181;53.440;5.644;2023-05-20T05:21:12;12.60;99.90
53294;DHT22;39181;53.440;5.644;2023-05-20T05:23:38;12.70;99.90
53294;DHT22;39181;53.440;5.644;2023-05-20T05:26:03;12.70;99.90
53294;DHT22;39181;53.440;5.644;2023-05-20T05:28:29;12.70;99.90
53294;DHT22;39181;53.440;5.644;2023-05-20T05:30:55;12.80;99.90
53294;DHT22;39181;53.440;5.644;2023-05-20T05:33:21;12.70;99.90
53294;DHT22;39181;53.440;5.644;2023-05-20T05:35:46;12.60;99.90
53294;DHT22;39181;53.440;5.644;2023-05-20T05:38:12;12.60;99.90
53294;DHT22;39181;53.440;5.644;2023-05-20T05:40:38;12.50;99.90
53294;DHT22;39181;53.440;5.644;2023-05-20T05:43:03;12.60;99.90
53294;DHT22;39181;53.440;5.644;2023-05-20T05:45:29;12.50;99.90
53294;DHT22;39181;53.440;5.644;2023-05-20T05:47:55;12.70;99.90
53294;DHT22;39181;53.440;5.644;2023-05-20T05:50:20;12.90;99.90
53294;DHT22;39181;53.440;5.644;2023-05-20T05:52:46;13.10;99.90
53294;DHT22;39181;53.440;5.644;2023-05-20T05:55:11;13.30;99.90
53294;DHT22;39181;53.440;5.644;2023-05-20T05:57:37;13.40;99.90
53294;DHT22;39181;53.440;5.644;2023-05-20T06:00:03;13.50;99.90
53294;DHT22;39181;53.440;5.644;2023-05-20T06:02:29;13.40;99.90
53294;DHT22;39181;53.440;5.644;2023-05-20T06:04:54;13.20;99.90
53294;DHT22;39181;53.440;5.644;2023-05-20T06:07:21;13.10;99.90
53294;DHT22;39181;53.440;5.644;2023-05-20T06:09:47;13.10;99.90
53294;DHT22;39181;53.440;5.644;2023-05-20T06:12:12;13.00;99.90
53294;DHT22;39181;53.440;5.644;2023-05-20T06:14:38;13.20;99.90
53294;DHT22;39181;53.440;5.644;2023-05-20T06:17:04;13.40;99.90
53294;DHT22;39181;53.440;5.644;2023-05-20T06:19:30;13.60;99.90
53294;DHT22;39181;53.440;5.644;2023-05-20T06:21:56;13.70;99.90
53294;DHT22;39181;53.440;5.644;2023-05-20T06:24:23;13.90;99.90
53294;DHT22;39181;53.440;5.644;2023-05-20T06:26:48;14.00;99.90
53294;DHT22;39181;53.440;5.644;2023-05-20T06:29:15;14.10;99.90
53294;DHT22;39181;53.440;5.644;2023-05-20T06:31:40;14.10;99.90
53294;DHT22;39181;53.440;5.644;2023-05-20T06:34:06;14.20;99.90
53294;DHT22;39181;53.440;5.644;2023-05-20T06:36:32;14.20;99.90
53294;DHT22;39181;53.440;5.644;2023-05-20T06:38:57;14.60;99.90
53294;DHT22;39181;53.440;5.644;2023-05-20T06:41:23;15.10;99.90
53294;DHT22;39181;53.440;5.644;2023-05-20T06:43:48;15.70;99.90
53294;DHT22;39181;53.440;5.644;2023-05-20T06:46:14;16.00;99.90
53294;DHT22;39181;53.440;5.644;2023-05-20T06:48:39;16.20;99.90
53294;DHT22;39181;53.440;5.644;2023-05-20T06:51:06;16.10;99.90
53294;DHT22;39181;53.440;5.644;2023-05-20T06:53:34;16.50;99.90
53294;DHT22;39181;53.440;5.644;2023-05-20T06:55:59;16.50;99.90
53294;DHT22;39181;53.440;5.644;2023-05-20T06:58:25;16.40;99.90
53294;DHT22;39181;53.440;5.644;2023-05-20T07:00:50;16.30;99.90
53294;DHT22;39181;53.440;5.644;2023-05-20T07:03:16;16.20;99.90
53294;DHT22;39181;53.440;5.644;2023-05-20T07:05:42;16.10;99.90
53294;DHT22;39181;53.440;5.644;2023-05-20T07:08:07;16.10;99.90
53294;DHT22;39181;53.440;5.644;2023-05-20T07:10:33;16.00;99.90
53294;DHT22;39181;53.440;5.644;2023-05-20T07:12:59;16.20;99.90
53294;DHT22;39181;53.440;5.644;2023-05-20T07:15:24;16.10;99.90
53294;DHT22;39181;53.440;5.644;2023-05-20T07:17:50;16.00;99.90
53294;DHT22;39181;53.440;5.644;2023-05-20T07:20:16;15.80;99.90
53294;DHT22;39181;53.440;5.644;2023-05-20T07:22:41;15.70;99.90
53294;DHT22;39181;53.440;5.644;2023-05-20T07:25:08;15.80;99.90
53294;DHT22;39181;53.440;5.644;2023-05-20T07:27:34;16.10;99.90
53294;DHT22;39181;53.440;5.644;2023-05-20T07:30:00;15.80;99.90
53294;DHT22;39181;53.440;5.644;2023-05-20T07:32:26;15.90;99.90
53294;DHT22;39181;53.440;5.644;2023-05-20T07:34:51;15.80;99.90
53294;DHT22;39181;53.440;5.644;2023-05-20T07:37:17;15.50;99.90
53294;DHT22;39181;53.440;5.644;2023-05-20T07:39:43;15.70;99.90
53294;DHT22;39181;53.440;5.644;2023-05-20T07:42:09;15.90;99.90
53294;DHT22;39181;53.440;5.644;2023-05-20T07:44:34;16.00;99.90
53294;DHT22;39181;53.440;5.644;2023-05-20T07:47:01;16.00;99.90
53294;DHT22;39181;53.440;5.644;2023-05-20T07:49:27;15.90;99.90
53294;DHT22;39181;53.440;5.644;2023-05-20T07:51:53;15.80;99.90
53294;DHT22;39181;53.440;5.644;2023-05-20T07:54:18;15.60;99.90
53294;DHT22;39181;53.440;5.644;2023-05-20T07:56:44;15.60;99.90
53294;DHT22;39181;53.440;5.644;2023-05-20T07:59:09;15.70;99.90
53294;DHT22;39181;53.440;5.644;2023-05-20T08:01:35;15.60;99.90
53294;DHT22;39181;53.440;5.644;2023-05-20T08:04:01;15.60;99.90
53294;DHT22;39181;53.440;5.644;2023-05-20T08:06:27;15.40;99.90
53294;DHT22;39181;53.440;5.644;2023-05-20T08:08:52;15.50;99.90
53294;DHT22;39181;53.440;5.644;2023-05-20T08:11:19;15.60;99.90
53294;DHT22;39181;53.440;5.644;2023-05-20T08:13:46;15.60;99.90
53294;DHT22;39181;53.440;5.644;2023-05-20T08:16:11;15.60;99.90
53294;DHT22;39181;53.440;5.644;2023-05-20T08:18:37;15.40;99.90
53294;DHT22;39181;53.440;5.644;2023-05-20T08:21:04;15.40;99.90
53294;DHT22;39181;53.440;5.644;2023-05-20T08:23:30;15.50;99.90
53294;DHT22;39181;53.440;5.644;2023-05-20T08:25:56;15.60;99.90
53294;DHT22;39181;53.440;5.644;2023-05-20T08:28:26;15.50;99.90
53294;DHT22;39181;53.440;5.644;2023-05-20T08:30:51;15.50;99.90
53294;DHT22;39181;53.440;5.644;2023-05-20T08:33:17;15.60;99.90
53294;DHT22;39181;53.440;5.644;2023-05-20T08:35:44;15.60;99.90
53294;DHT22;39181;53.440;5.644;2023-05-20T08:38:09;15.50;99.90
53294;DHT22;39181;53.440;5.644;2023-05-20T08:40:35;15.60;99.90
53294;DHT22;39181;53.440;5.644;2023-05-20T08:43:01;15.60;99.90
53294;DHT22;39181;53.440;5.644;2023-05-20T08:45:29;15.70;99.90
53294;DHT22;39181;53.440;5.644;2023-05-20T08:47:56;15.70;99.90
53294;DHT22;39181;53.440;5.644;2023-05-20T08:50:22;15.80;99.90
53294;DHT22;39181;53.440;5.644;2023-05-20T08:52:48;15.80;99.90
53294;DHT22;39181;53.440;5.644;2023-05-20T08:55:19;15.60;99.90
53294;DHT22;39181;53.440;5.644;2023-05-20T08:57:55;15.60;99.90
53294;DHT22;39181;53.440;5.644;2023-05-20T09:00:21;15.70;99.90
53294;DHT22;39181;53.440;5.644;2023-05-20T09:02:51;15.70;99.90
53294;DHT22;39181;53.440;5.644;2023-05-20T09:05:18;15.80;99.90
53294;DHT22;39181;53.440;5.644;2023-05-20T09:07:44;15.70;99.90
53294;DHT22;39181;53.440;5.644;2023-05-20T09:10:10;15.70;99.90
53294;DHT22;39181;53.440;5.644;2023-05-20T09:12:36;15.70;99.90
53294;DHT22;39181;53.440;5.644;2023-05-20T09:15:01;15.80;99.90
53294;DHT22;39181;53.440;5.644;2023-05-20T09:17:27;15.90;99.90
53294;DHT22;39181;53.440;5.644;2023-05-20T09:19:53;15.80;99.90
53294;DHT22;39181;53.440;5.644;2023-05-20T09:22:23;15.80;99.90
53294;DHT22;39181;53.440;5.644;2023-05-20T09:24:49;15.80;99.90
53294;DHT22;39181;53.440;5.644;2023-05-20T09:27:15;15.80;99.90
53294;DHT22;39181;53.440;5.644;2023-05-20T09:29:41;15.90;99.90
53294;DHT22;39181;53.440;5.644;2023-05-20T09:32:09;15.70;99.90
53294;DHT22;39181;53.440;5.644;2023-05-20T09:34:36;15.80;99.90
53294;DHT22;39181;53.440;5.644;2023-05-20T09:37:02;15.80;99.90
53294;DHT22;39181;53.440;5.644;2023-05-20T09:39:29;16.00;99.90
53294;DHT22;39181;53.440;5.644;2023-05-20T09:42:02;16.00;99.90
53294;DHT22;39181;53.440;5.644;2023-05-20T09:44:31;16.00;99.90
53294;DHT22;39181;53.440;5.644;2023-05-20T09:46:58;16.00;99.90
53294;DHT22;39181;53.440;5.644;2023-05-20T09:49:25;16.00;99.90
53294;DHT22;39181;53.440;5.644;2023-05-20T09:51:53;16.00;99.90
53294;DHT22;39181;53.440;5.644;2023-05-20T09:54:19;15.70;99.90
53294;DHT22;39181;53.440;5.644;2023-05-20T09:56:46;16.00;99.90
53294;DHT22;39181;53.440;5.644;2023-05-20T09:59:14;16.10;99.90
53294;DHT22;39181;53.440;5.644;2023-05-20T10:01:41;16.10;99.90
53294;DHT22;39181;53.440;5.644;2023-05-20T10:04:07;15.90;99.90
53294;DHT22;39181;53.440;5.644;2023-05-20T10:06:43;16.20;99.90
53294;DHT22;39181;53.440;5.644;2023-05-20T10:20:49;16.00;99.90
53294;DHT22;39181;53.440;5.644;2023-05-20T10:23:29;16.10;99.90
53294;DHT22;39181;53.440;5.644;2023-05-20T10:25:56;16.10;99.90
53294;DHT22;39181;53.440;5.644;2023-05-20T10:30:55;16.00;99.90
53294;DHT22;39181;53.440;5.644;2023-05-20T10:33:20;15.90;99.90
53294;DHT22;39181;53.440;5.644;2023-05-20T10:35:49;16.00;99.90
53294;DHT22;39181;53.440;5.644;2023-05-20T10:38:16;16.00;99.90
53294;DHT22;39181;53.440;5.644;2023-05-20T10:40:41;16.00;99.90
53294;DHT22;39181;53.440;5.644;2023-05-20T10:43:15;16.00;99.90
53294;DHT22;39181;53.440;5.644;2023-05-20T10:45:49;16.00;99.90
53294;DHT22;39181;53.440;5.644;2023-05-20T10:48:28;16.10;99.90
53294;DHT22;39181;53.440;5.644;2023-05-20T10:51:00;16.10;99.90
53294;DHT22;39181;53.440;5.644;2023-05-20T10:53:37;16.00;99.90
53294;DHT22;39181;53.440;5.644;2023-05-20T10:56:02;15.90;99.90
53294;DHT22;39181;53.440;5.644;2023-05-20T10:58:36;16.10;99.90
53294;DHT22;39181;53.440;5.644;2023-05-20T11:01:01;16.10;99.90
53294;DHT22;39181;53.440;5.644;2023-05-20T11:03:28;16.30;99.90
53294;DHT22;39181;53.440;5.644;2023-05-20T11:05:54;16.20;99.90
53294;DHT22;39181;53.440;5.644;2023-05-20T11:08:20;16.10;99.90
53294;DHT22;39181;53.440;5.644;2023-05-20T11:10:46;16.20;99.90
53294;DHT22;39181;53.440;5.644;2023-05-20T11:13:12;16.10;99.90
53294;DHT22;39181;53.440;5.644;2023-05-20T11:15:39;16.10;99.90
53294;DHT22;39181;53.440;5.644;2023-05-20T11:18:06;16.10;99.90
53294;DHT22;39181;53.440;5.644;2023-05-20T11:20:32;16.10;99.90
53294;DHT22;39181;53.440;5.644;2023-05-20T11:23:00;16.30;99.90
53294;DHT22;39181;53.440;5.644;2023-05-20T11:25:26;16.20;99.90
53294;DHT22;39181;53.440;5.644;2023-05-20T11:27:52;16.30;99.90
53294;DHT22;39181;53.440;5.644;2023-05-20T11:30:18;16.30;99.90
53294;DHT22;39181;53.440;5.644;2023-05-20T11:32:57;16.30;99.90
53294;DHT22;39181;53.440;5.644;2023-05-20T11:35:24;16.20;99.90
53294;DHT22;39181;53.440;5.644;2023-05-20T11:38:01;16.20;99.90
53294;DHT22;39181;53.440;5.644;2023-05-20T11:40:28;16.10;99.90
53294;DHT22;39181;53.440;5.644;2023-05-20T11:42:56;16.30;99.90
53294;DHT22;39181;53.440;5.644;2023-05-20T11:45:22;16.30;99.90
53294;DHT22;39181;53.440;5.644;2023-05-20T11:48:01;16.20;99.90
53294;DHT22;39181;53.440;5.644;2023-05-20T11:50:27;16.10;99.90
53294;DHT22;39181;53.440;5.644;2023-05-20T11:52:57;16.00;99.90
53294;DHT22;39181;53.440;5.644;2023-05-20T11:55:24;16.00;99.90
53294;DHT22;39181;53.440;5.644;2023-05-20T11:57:50;15.90;99.90
53294;DHT22;39181;53.440;5.644;2023-05-20T12:00:16;16.10;99.90
53294;DHT22;39181;53.440;5.644;2023-05-20T12:02:43;16.10;99.90
53294;DHT22;39181;53.440;5.644;2023-05-20T12:05:09;16.10;99.90
53294;DHT22;39181;53.440;5.644;2023-05-20T12:07:35;16.30;99.90
53294;DHT22;39181;53.440;5.644;2023-05-20T12:10:06;16.30;99.90
53294;DHT22;39181;53.440;5.644;2023-05-20T12:12:32;16.30;99.90
53294;DHT22;39181;53.440;5.644;2023-05-20T12:14:59;16.20;99.90
53294;DHT22;39181;53.440;5.644;2023-05-20T12:17:25;16.30;99.90
53294;DHT22;39181;53.440;5.644;2023-05-20T12:19:51;16.00;99.90
53294;DHT22;39181;53.440;5.644;2023-05-20T12:22:16;16.10;99.90
53294;DHT22;39181;53.440;5.644;2023-05-20T12:24:42;16.10;99.90
53294;DHT22;39181;53.440;5.644;2023-05-20T12:27:07;16.00;99.90
53294;DHT22;39181;53.440;5.644;2023-05-20T12:29:33;15.80;99.90
53294;DHT22;39181;53.440;5.644;2023-05-20T12:31:59;15.90;99.90
53294;DHT22;39181;53.440;5.644;2023-05-20T12:34:25;16.00;99.90
53294;DHT22;39181;53.440;5.644;2023-05-20T12:36:51;16.00;99.90
53294;DHT22;39181;53.440;5.644;2023-05-20T12:39:17;16.10;99.90
53294;DHT22;39181;53.440;5.644;2023-05-20T12:41:43;16.20;99.90
53294;DHT22;39181;53.440;5.644;2023-05-20T12:44:09;16.20;99.90
53294;DHT22;39181;53.440;5.644;2023-05-20T12:46:36;16.10;99.90
53294;DHT22;39181;53.440;5.644;2023-05-20T12:49:02;16.10;99.90
53294;DHT22;39181;53.440;5.644;2023-05-20T12:51:28;15.90;99.90
53294;DHT22;39181;53.440;5.644;2023-05-20T12:53:53;15.90;99.90
53294;DHT22;39181;53.440;5.644;2023-05-20T12:56:21;15.90;99.90
53294;DHT22;39181;53.440;5.644;2023-05-20T12:58:48;15.90;99.90
53294;DHT22;39181;53.440;5.644;2023-05-20T13:01:13;16.00;99.90
53294;DHT22;39181;53.440;5.644;2023-05-20T13:03:39;16.00;99.90
53294;DHT22;39181;53.440;5.644;2023-05-20T13:06:04;15.80;99.90
53294;DHT22;39181;53.440;5.644;2023-05-20T13:08:30;15.90;99.90
53294;DHT22;39181;53.440;5.644;2023-05-20T13:10:55;15.80;99.90
53294;DHT22;39181;53.440;5.644;2023-05-20T13:13:21;15.90;99.90
53294;DHT22;39181;53.440;5.644;2023-05-20T13:15:47;15.90;99.90
53294;DHT22;39181;53.440;5.644;2023-05-20T13:18:16;15.80;99.90
53294;DHT22;39181;53.440;5.644;2023-05-20T13:20:42;16.00;99.90
53294;DHT22;39181;53.440;5.644;2023-05-20T13:23:08;15.90;99.90
53294;DHT22;39181;53.440;5.644;2023-05-20T13:25:34;15.90;99.90
53294;DHT22;39181;53.440;5.644;2023-05-20T13:28:01;15.90;99.90
53294;DHT22;39181;53.440;5.644;2023-05-20T13:30:27;16.00;99.90
53294;DHT22;39181;53.440;5.644;2023-05-20T13:32:52;15.90;99.90
53294;DHT22;39181;53.440;5.644;2023-05-20T13:35:18;15.80;99.90
53294;DHT22;39181;53.440;5.644;2023-05-20T13:37:44;15.90;99.90
53294;DHT22;39181;53.440;5.644;2023-05-20T13:40:10;16.00;99.90
53294;DHT22;39181;53.440;5.644;2023-05-20T13:42:36;16.00;99.90
53294;DHT22;39181;53.440;5.644;2023-05-20T13:45:02;16.00;99.90
53294;DHT22;39181;53.440;5.644;2023-05-20T13:47:27;16.00;99.90
53294;DHT22;39181;53.440;5.644;2023-05-20T13:49:53;16.10;99.90
53294;DHT22;39181;53.440;5.644;2023-05-20T13:52:18;16.10;99.90
53294;DHT22;39181;53.440;5.644;2023-05-20T13:54:44;15.90;99.90
53294;DHT22;39181;53.440;5.644;2023-05-20T13:57:12;16.10;99.90
53294;DHT22;39181;53.440;5.644;2023-05-20T13:59:37;16.10;99.90
53294;DHT22;39181;53.440;5.644;2023-05-20T14:02:03;16.00;99.90
53294;DHT22;39181;53.440;5.644;2023-05-20T14:04:29;16.10;99.90
53294;DHT22;39181;53.440;5.644;2023-05-20T14:06:55;16.10;99.90
53294;DHT22;39181;53.440;5.644;2023-05-20T14:09:21;16.00;99.90
53294;DHT22;39181;53.440;5.644;2023-05-20T14:11:47;16.00;99.90
53294;DHT22;39181;53.440;5.644;2023-05-20T14:14:13;16.00;99.90
53294;DHT22;39181;53.440;5.644;2023-05-20T14:16:38;16.00;99.90
53294;DHT22;39181;53.440;5.644;2023-05-20T14:19:04;16.00;99.90
53294;DHT22;39181;53.440;5.644;2023-05-20T14:21:29;15.90;99.90
53294;DHT22;39181;53.440;5.644;2023-05-20T14:23:57;16.00;99.90
53294;DHT22;39181;53.440;5.644;2023-05-20T14:26:23;16.00;99.90
53294;DHT22;39181;53.440;5.644;2023-05-20T14:28:48;16.00;99.90
53294;DHT22;39181;53.440;5.644;2023-05-20T14:31:14;15.80;99.90
53294;DHT22;39181;53.440;5.644;2023-05-20T14:33:39;15.90;99.90
53294;DHT22;39181;53.440;5.644;2023-05-20T14:36:05;15.90;99.90
53294;DHT22;39181;53.440;5.644;2023-05-20T14:38:31;15.90;99.90
53294;DHT22;39181;53.440;5.644;2023-05-20T14:40:57;15.90;99.90
53294;DHT22;39181;53.440;5.644;2023-05-20T14:43:22;15.80;99.90
53294;DHT22;39181;53.440;5.644;2023-05-20T14:45:48;15.70;99.90
53294;DHT22;39181;53.440;5.644;2023-05-20T14:48:13;15.70;99.90
53294;DHT22;39181;53.440;5.644;2023-05-20T14:50:39;15.60;99.90
53294;DHT22;39181;53.440;5.644;2023-05-20T14:53:05;15.60;99.90
53294;DHT22;39181;53.440;5.644;2023-05-20T14:55:30;15.60;99.90
53294;DHT22;39181;53.440;5.644;2023-05-20T14:57:56;15.70;99.90
53294;DHT22;39181;53.440;5.644;2023-05-20T15:00:22;15.70;99.90
53294;DHT22;39181;53.440;5.644;2023-05-20T15:02:47;15.60;99.90
53294;DHT22;39181;53.440;5.644;2023-05-20T15:05:13;15.60;99.90
53294;DHT22;39181;53.440;5.644;2023-05-20T15:07:39;15.60;99.90
53294;DHT22;39181;53.440;5.644;2023-05-20T15:10:04;15.60;99.90
53294;DHT22;39181;53.440;5.644;2023-05-20T15:12:30;15.70;99.90
53294;DHT22;39181;53.440;5.644;2023-05-20T15:14:56;15.60;99.90
53294;DHT22;39181;53.440;5.644;2023-05-20T15:17:21;15.60;99.90
53294;DHT22;39181;53.440;5.644;2023-05-20T15:19:47;15.60;99.90
53294;DHT22;39181;53.440;5.644;2023-05-20T15:22:12;15.60;99.90
53294;DHT22;39181;53.440;5.644;2023-05-20T15:24:38;15.60;99.90
53294;DHT22;39181;53.440;5.644;2023-05-20T15:27:03;15.60;99.90
53294;DHT22;39181;53.440;5.644;2023-05-20T15:29:29;15.60;99.90
53294;DHT22;39181;53.440;5.644;2023-05-20T15:31:55;15.70;99.90
53294;DHT22;39181;53.440;5.644;2023-05-20T15:34:20;15.50;99.90
53294;DHT22;39181;53.440;5.644;2023-05-20T15:36:46;15.50;99.90
53294;DHT22;39181;53.440;5.644;2023-05-20T15:39:11;15.40;99.90